Time;durP1;ratioP1;P1;durP2;ratioP2;P2;SDS_P1;SDS_P2;PMS_P1;PMS_P2;Temp;Humidity;BMP_temperature;BMP_pressure;BME280_temperature;BME280_humidity;BME280_pressure;Samples;Min_cycle;Max_cycle;Signal;HPM_P1;HPM_P2
2022/11/06 00:00:24;;;;;;;102.45;35.08;;;16.60;87.70;;;;;;5053640;28;20025;-73
2022/11/06 00:02:50;;;;;;;86.30;31.23;;;16.60;87.70;;;;;;5053484;28;20025;-73
2022/11/06 00:08:00;;;;;;;95.85;33.60;;;16.60;87.80;;;;;;5033351;28;20029;-73
2022/11/06 00:10:26;;;;;;;88.53;32.75;;;16.60;87.80;;;;;;5034799;28;20017;-73
2022/11/06 00:12:51;;;;;;;92.93;33.15;;;16.60;87.70;;;;;;5033302;28;20045;-73
2022/11/06 00:15:17;;;;;;;85.47;30.95;;;16.60;87.70;;;;;;5035851;28;20018;-73
2022/11/06 00:17:42;;;;;;;88.22;30.77;;;16.60;87.70;;;;;;5036593;28;20033;-73
2022/11/06 00:20:08;;;;;;;83.35;30.80;;;16.50;87.70;;;;;;5054252;28;20017;-73
2022/11/06 00:22:37;;;;;;;80.35;30.55;;;16.60;87.70;;;;;;5053273;28;20033;-73
2022/11/06 00:25:06;;;;;;;86.75;30.50;;;16.60;87.80;;;;;;5036639;28;20091;-73
2022/11/06 00:27:35;;;;;;;85.82;31.00;;;16.50;87.70;;;;;;5036611;28;20025;-73
2022/11/06 00:30:01;;;;;;;87.07;30.08;;;16.60;87.80;;;;;;5053009;28;20071;-73
2022/11/06 00:32:27;;;;;;;91.93;30.20;;;16.50;87.70;;;;;;5054436;28;20436;-73
2022/11/06 00:34:52;;;;;;;84.80;29.42;;;16.50;87.70;;;;;;5052605;28;20514;-73
2022/11/06 00:37:18;;;;;;;92.43;31.33;;;16.50;87.70;;;;;;5054292;28;20060;-73
2022/11/06 00:39:43;;;;;;;84.15;30.20;;;16.60;87.70;;;;;;5054109;28;20103;-73
2022/11/06 00:42:09;;;;;;;85.50;30.73;;;16.60;87.70;;;;;;5053990;28;20438;-73
2022/11/06 00:44:35;;;;;;;79.88;28.65;;;16.50;87.70;;;;;;5053022;28;20025;-73
2022/11/06 00:47:00;;;;;;;81.60;28.90;;;16.50;87.70;;;;;;5052561;28;20025;-73
2022/11/06 00:49:27;;;;;;;80.15;28.83;;;16.50;87.70;;;;;;5053782;28;20052;-73
2022/11/06 00:51:52;;;;;;;78.75;28.17;;;16.50;87.70;;;;;;5052733;28;20036;-73
2022/11/06 00:54:18;;;;;;;79.82;28.35;;;16.50;87.70;;;;;;5052700;28;20021;-73
2022/11/06 00:56:44;;;;;;;79.72;29.65;;;16.50;87.70;;;;;;5053575;28;20415;-73
2022/11/06 00:59:11;;;;;;;73.10;26.75;;;16.50;87.70;;;;;;5036020;28;20017;-73
2022/11/06 01:01:38;;;;;;;78.07;27.58;;;16.50;87.70;;;;;;5052585;28;20082;-73
2022/11/06 01:04:06;;;;;;;72.95;26.48;;;16.50;87.70;;;;;;5035643;28;20032;-73
2022/11/06 01:06:33;;;;;;;77.80;27.75;;;16.60;87.70;;;;;;5052623;28;20028;-73
2022/11/06 01:08:59;;;;;;;76.63;26.63;;;16.60;87.70;;;;;;5038928;28;20029;-73
2022/11/06 01:11:32;;;;;;;72.43;24.98;;;16.50;87.70;;;;;;5016122;28;20033;-73
2022/11/06 01:13:59;;;;;;;72.10;25.35;;;16.60;87.80;;;;;;5015907;28;20029;-73
2022/11/06 01:16:25;;;;;;;66.55;25.42;;;16.60;87.70;;;;;;5043132;28;20029;-73
2022/11/06 01:18:51;;;;;;;67.13;24.92;;;16.60;87.70;;;;;;5035377;28;20025;-73
2022/11/06 01:21:22;;;;;;;70.43;25.05;;;16.50;87.70;;;;;;5035758;28;20053;-73
2022/11/06 01:23:55;;;;;;;73.80;24.85;;;16.50;87.70;;;;;;5053062;28;20578;-73
2022/11/06 01:26:21;;;;;;;70.85;26.13;;;16.50;87.70;;;;;;5052096;28;20053;-73
2022/11/06 01:28:46;;;;;;;66.93;23.92;;;16.50;87.70;;;;;;5035376;28;20439;-73
2022/11/06 01:31:14;;;;;;;62.25;23.70;;;16.50;87.70;;;;;;5051838;28;20032;-73
2022/11/06 01:33:40;;;;;;;63.15;23.63;;;16.50;87.70;;;;;;5052000;28;20104;-73
2022/11/06 01:36:08;;;;;;;73.40;25.42;;;16.50;87.70;;;;;;5035090;28;20079;-73
2022/11/06 01:38:33;;;;;;;65.95;24.63;;;16.50;87.70;;;;;;5051999;28;20040;-73
2022/11/06 01:40:59;;;;;;;63.80;23.73;;;16.50;87.70;;;;;;5035143;28;20118;-73
2022/11/06 01:43:45;;;;;;;65.82;23.98;;;16.50;87.70;;;;;;5051701;28;20566;-73
2022/11/06 01:46:11;;;;;;;59.78;22.00;;;16.50;87.60;;;;;;5052374;28;20037;-73
2022/11/06 01:48:37;;;;;;;62.22;22.42;;;16.50;87.70;;;;;;5035090;28;20075;-73
2022/11/06 01:51:03;;;;;;;56.60;20.83;;;16.60;87.70;;;;;;5035167;28;20033;-73
2022/11/06 01:53:28;;;;;;;54.00;20.52;;;16.50;87.70;;;;;;5034971;28;20025;-73
2022/11/06 01:55:57;;;;;;;60.55;22.95;;;16.50;87.70;;;;;;5034963;28;20107;-73
2022/11/06 01:58:24;;;;;;;55.55;21.38;;;16.50;87.70;;;;;;5035214;28;20040;-74
2022/11/06 02:00:49;;;;;;;56.33;21.55;;;16.50;87.70;;;;;;5051268;28;20017;-73
2022/11/06 02:03:15;;;;;;;56.15;20.58;;;16.60;87.70;;;;;;5051407;28;20029;-73
2022/11/06 02:05:41;;;;;;;51.05;19.05;;;16.50;87.70;;;;;;5052454;28;20510;-73
2022/11/06 02:08:08;;;;;;;55.03;20.77;;;16.60;87.70;;;;;;5027643;28;20032;-73
2022/11/06 02:10:34;;;;;;;52.10;19.95;;;16.50;87.80;;;;;;5015175;28;20412;-73
2022/11/06 02:13:11;;;;;;;51.47;19.50;;;16.50;87.70;;;;;;5031426;28;20025;-73
2022/11/06 02:15:51;;;;;;;53.22;20.27;;;16.50;87.70;;;;;;5036152;28;20402;-73
2022/11/06 02:18:47;;;;;;;50.97;19.25;;;16.50;87.70;;;;;;5051135;28;20025;-73
2022/11/06 02:21:16;;;;;;;57.10;19.85;;;16.50;87.70;;;;;;5052344;28;20036;-73
2022/11/06 02:24:11;;;;;;;52.30;19.70;;;16.50;87.70;;;;;;5052109;28;20056;-73
2022/11/06 02:26:55;;;;;;;54.20;21.33;;;16.50;87.70;;;;;;5051484;28;20033;-73
2022/11/06 02:29:27;;;;;;;52.40;18.45;;;16.50;87.70;;;;;;5051031;28;20086;-73
2022/11/06 02:31:54;;;;;;;54.88;19.35;;;16.50;88.70;;;;;;5035484;28;20083;-73
2022/11/06 02:34:19;;;;;;;52.92;19.58;;;16.50;87.70;;;;;;5034388;28;20533;-73
2022/11/06 02:36:55;;;;;;;48.60;19.15;;;16.50;87.70;;;;;;5034642;28;20120;-73
2022/11/06 02:39:21;;;;;;;51.38;19.25;;;16.50;87.70;;;;;;5034814;28;20021;-73
2022/11/06 02:41:47;;;;;;;49.97;17.88;;;16.50;87.70;;;;;;5034448;28;20083;-73
2022/11/06 02:44:16;;;;;;;45.50;17.23;;;16.50;87.70;;;;;;5033982;28;20021;-73
2022/11/06 02:46:52;;;;;;;49.97;17.58;;;16.50;87.70;;;;;;5034683;28;20468;-73
2022/11/06 02:49:38;;;;;;;49.55;18.13;;;16.50;87.70;;;;;;5034713;28;20021;-73
2022/11/06 02:52:07;;;;;;;50.58;18.80;;;16.50;87.70;;;;;;5050848;28;20025;-73
2022/11/06 02:54:34;;;;;;;47.33;17.75;;;16.50;88.70;;;;;;5034700;28;20025;-73
2022/11/06 02:57:04;;;;;;;47.38;17.10;;;16.50;87.70;;;;;;5034124;28;20564;-74
2022/11/06 02:59:42;;;;;;;43.55;17.15;;;16.50;87.70;;;;;;5050627;28;20083;-73
2022/11/06 03:02:09;;;;;;;48.38;17.70;;;16.50;87.70;;;;;;5034897;28;20052;-73
2022/11/06 03:04:42;;;;;;;47.00;16.90;;;16.50;87.70;;;;;;5034399;28;20017;-73
2022/11/06 03:07:14;;;;;;;44.42;17.25;;;16.50;87.70;;;;;;5034897;28;20024;-73
2022/11/06 03:09:40;;;;;;;45.35;16.63;;;16.50;87.70;;;;;;5014717;28;20022;-73
2022/11/06 03:12:19;;;;;;;43.13;16.17;;;16.50;87.70;;;;;;5014290;28;20558;-73
2022/11/06 03:15:09;;;;;;;41.03;16.60;;;16.50;87.70;;;;;;5014839;28;20033;-73
2022/11/06 03:17:45;;;;;;;41.28;16.23;;;16.60;87.70;;;;;;5000788;28;20438;-73
2022/11/06 03:20:39;;;;;;;41.88;15.80;;;16.50;87.70;;;;;;5030491;28;20567;-73
2022/11/06 03:23:38;;;;;;;45.10;16.83;;;16.60;87.70;;;;;;5030345;28;20041;-73
2022/11/06 03:26:12;;;;;;;41.20;15.85;;;16.60;87.70;;;;;;5035208;28;20053;-73
2022/11/06 03:28:51;;;;;;;46.45;15.93;;;16.50;87.70;;;;;;5030564;28;20018;-73
2022/11/06 03:31:18;;;;;;;39.05;14.88;;;16.50;87.70;;;;;;5014325;28;20495;-73
2022/11/06 03:33:51;;;;;;;40.28;14.88;;;16.50;87.70;;;;;;5014395;28;20460;-73
2022/11/06 03:36:24;;;;;;;41.33;16.05;;;16.50;87.70;;;;;;4999014;28;20079;-73
2022/11/06 03:38:52;;;;;;;38.53;14.23;;;16.50;87.70;;;;;;5034234;28;20484;-73
2022/11/06 03:41:22;;;;;;;42.95;15.30;;;16.50;87.70;;;;;;5017738;28;20128;-73
2022/11/06 03:43:48;;;;;;;36.17;14.95;;;16.60;87.70;;;;;;5017706;28;20017;-73
2022/11/06 03:46:16;;;;;;;35.70;14.50;;;16.60;87.70;;;;;;5017546;28;20049;-73
2022/11/06 03:48:43;;;;;;;35.47;14.30;;;16.50;87.70;;;;;;5017868;28;20049;-73
2022/11/06 03:51:17;;;;;;;36.97;14.27;;;16.50;87.70;;;;;;5017506;28;20104;-73
2022/11/06 03:53:51;;;;;;;36.35;14.05;;;16.60;87.70;;;;;;5017930;28;20018;-73
2022/11/06 03:56:28;;;;;;;40.17;13.85;;;16.60;87.70;;;;;;5017006;28;20048;-73
2022/11/06 03:58:54;;;;;;;36.35;13.48;;;16.50;87.70;;;;;;5034953;28;20025;-73
2022/11/06 04:01:23;;;;;;;35.30;14.05;;;16.60;87.70;;;;;;5017352;28;20365;-73
2022/11/06 04:04:01;;;;;;;34.63;13.93;;;16.50;87.70;;;;;;5017674;28;20028;-73
2022/11/06 04:07:11;;;;;;;31.88;13.07;;;16.50;87.70;;;;;;5017601;28;20048;-73
2022/11/06 04:15:09;;;;;;;34.13;12.73;;;16.50;87.60;;;;;;5018544;28;20040;-73
2022/11/06 04:17:35;;;;;;;35.00;13.80;;;16.60;87.70;;;;;;5032573;28;20033;-73
2022/11/06 04:20:02;;;;;;;32.45;13.18;;;16.50;87.60;;;;;;5048964;28;20488;-73
2022/11/06 04:22:50;;;;;;;34.38;13.32;;;16.50;87.60;;;;;;5032307;28;20041;-73
2022/11/06 04:28:48;;;;;;;32.17;11.93;;;16.50;87.70;;;;;;5046592;28;20411;-73
2022/11/06 04:31:26;;;;;;;34.42;13.02;;;16.60;87.70;;;;;;4973264;28;20138;-73
2022/11/06 04:33:59;;;;;;;31.67;13.27;;;16.50;87.70;;;;;;4973619;28;20625;-73
2022/11/06 04:36:36;;;;;;;32.05;13.13;;;16.50;87.70;;;;;;4957777;28;20071;-73
2022/11/06 04:39:10;;;;;;;29.92;11.90;;;16.60;87.70;;;;;;4973381;28;20045;-73
2022/11/06 04:41:57;;;;;;;31.25;12.00;;;16.50;87.60;;;;;;4973133;28;20034;-73
2022/11/06 04:44:39;;;;;;;29.25;12.00;;;16.50;87.60;;;;;;4973229;28;20085;-73
2022/11/06 04:47:07;;;;;;;28.30;11.77;;;16.50;87.60;;;;;;4956826;28;20019;-73
2022/11/06 04:49:34;;;;;;;30.00;12.43;;;16.60;87.70;;;;;;4956666;28;20082;-73
2022/11/06 04:52:02;;;;;;;29.05;11.80;;;16.60;87.70;;;;;;4941211;28;20030;-73
2022/11/06 04:54:28;;;;;;;30.23;11.43;;;16.60;87.70;;;;;;4956846;28;20121;-73
2022/11/06 04:56:59;;;;;;;28.73;12.02;;;16.60;87.70;;;;;;4972588;28;20566;-73
2022/11/06 04:59:25;;;;;;;28.70;10.85;;;16.60;87.70;;;;;;4956861;28;20039;-73
2022/11/06 05:01:50;;;;;;;27.48;11.52;;;16.60;87.60;;;;;;4957036;28;20141;-73
2022/11/06 05:04:16;;;;;;;24.52;11.43;;;16.50;87.60;;;;;;4972939;28;20505;-73
2022/11/06 05:06:42;;;;;;;27.13;11.43;;;16.60;87.70;;;;;;4956829;28;20411;-73
2022/11/06 05:09:07;;;;;;;27.70;10.98;;;16.60;87.60;;;;;;5024523;28;20488;-73
2022/11/06 05:11:33;;;;;;;33.08;12.45;;;16.60;87.60;;;;;;5032465;28;20028;-73
2022/11/06 05:13:59;;;;;;;28.42;11.93;;;16.60;87.70;;;;;;5033711;28;20107;-73
2022/11/06 05:16:24;;;;;;;28.25;10.75;;;16.60;87.70;;;;;;5042605;28;20024;-73
2022/11/06 05:18:50;;;;;;;29.10;10.77;;;16.60;87.60;;;;;;5053384;28;20037;-73
2022/11/06 05:24:00;;;;;;;27.00;10.65;;;16.60;87.60;;;;;;5052104;28;20102;-73
2022/11/06 05:26:25;;;;;;;23.13;10.48;;;16.60;87.60;;;;;;5035595;28;20063;-73
2022/11/06 05:28:51;;;;;;;26.08;10.95;;;16.60;87.60;;;;;;5051965;28;20078;-73
2022/11/06 05:31:17;;;;;;;24.23;10.23;;;16.50;87.60;;;;;;5053067;28;20025;-73
2022/11/06 05:33:42;;;;;;;26.73;10.45;;;16.60;87.60;;;;;;5053196;28;20441;-73
2022/11/06 05:36:08;;;;;;;23.05;10.65;;;16.60;87.60;;;;;;5052997;28;20032;-73
2022/11/06 05:38:34;;;;;;;28.00;10.02;;;16.60;87.60;;;;;;5051828;28;20039;-73
2022/11/06 05:41:00;;;;;;;23.20;9.75;;;16.60;87.60;;;;;;5051811;28;20100;-73
2022/11/06 05:43:26;;;;;;;25.50;9.60;;;16.60;87.60;;;;;;5051743;28;20530;-73
2022/11/06 05:45:51;;;;;;;22.83;9.82;;;16.50;87.50;;;;;;5051666;28;20017;-73
2022/11/06 05:48:17;;;;;;;22.02;9.25;;;16.50;87.50;;;;;;5052803;28;20024;-73
2022/11/06 05:50:42;;;;;;;22.45;9.65;;;16.60;87.50;;;;;;5051590;28;20028;-73
2022/11/06 05:53:08;;;;;;;24.23;10.07;;;16.60;87.60;;;;;;5052793;28;20109;-73
2022/11/06 05:55:34;;;;;;;24.08;9.32;;;16.60;87.50;;;;;;5052606;28;20453;-73
2022/11/06 05:58:01;;;;;;;30.13;11.02;;;16.60;87.50;;;;;;5051824;28;20025;-73
2022/11/06 06:00:28;;;;;;;23.83;9.38;;;16.50;87.40;;;;;;5052363;28;20059;-73
2022/11/06 06:02:53;;;;;;;18.85;9.05;;;16.60;87.50;;;;;;5052760;28;20028;-73
2022/11/06 06:05:19;;;;;;;24.80;9.02;;;16.60;87.50;;;;;;5052562;28;20025;-73
2022/11/06 06:07:44;;;;;;;26.52;9.65;;;16.50;87.50;;;;;;5048241;28;20036;-73
2022/11/06 06:10:10;;;;;;;24.05;9.88;;;16.60;87.50;;;;;;5032680;28;20403;-73
2022/11/06 06:12:38;;;;;;;22.05;8.90;;;16.60;87.50;;;;;;5031434;28;20487;-73
2022/11/06 06:15:04;;;;;;;23.52;9.10;;;16.60;87.50;;;;;;5031441;28;20045;-73
2022/11/06 06:17:30;;;;;;;23.27;9.18;;;16.60;87.50;;;;;;5051785;28;20021;-73
2022/11/06 06:19:55;;;;;;;22.70;9.18;;;16.50;87.40;;;;;;5051371;28;20521;-73
2022/11/06 06:22:21;;;;;;;25.25;9.50;;;16.60;87.50;;;;;;5050900;28;20079;-73
2022/11/06 06:24:46;;;;;;;18.80;8.52;;;16.60;87.50;;;;;;5052134;28;20036;-73
2022/11/06 06:27:12;;;;;;;21.77;9.13;;;16.50;87.40;;;;;;5052313;28;20423;-73
2022/11/06 06:29:38;;;;;;;24.23;10.18;;;16.50;87.40;;;;;;5052135;28;20021;-73
2022/11/06 06:32:04;;;;;;;19.77;8.73;;;16.50;87.40;;;;;;5052366;28;20112;-73
2022/11/06 06:34:29;;;;;;;26.98;9.25;;;16.50;87.40;;;;;;5034549;28;20027;-73
2022/11/06 06:36:55;;;;;;;23.52;9.27;;;16.60;87.40;;;;;;5051867;28;20104;-73
2022/11/06 06:39:20;;;;;;;20.55;8.60;;;16.50;87.40;;;;;;5051038;28;20097;-73
2022/11/06 06:41:49;;;;;;;19.60;8.57;;;16.50;87.40;;;;;;5052287;28;20540;-73
2022/11/06 06:44:15;;;;;;;18.73;7.43;;;16.50;87.40;;;;;;5052139;28;20025;-73
2022/11/06 06:46:40;;;;;;;20.80;8.50;;;16.50;87.40;;;;;;5050755;28;20022;-73
2022/11/06 06:49:06;;;;;;;23.60;8.95;;;16.60;87.40;;;;;;5034488;28;20033;-73
2022/11/06 06:51:32;;;;;;;22.75;8.93;;;16.50;87.30;;;;;;5051829;28;20096;-73
2022/11/06 06:53:57;;;;;;;19.17;7.68;;;16.60;87.50;;;;;;5050965;28;20021;-73
2022/11/06 06:56:23;;;;;;;22.25;8.45;;;16.60;87.40;;;;;;5034163;28;20041;-73
2022/11/06 06:58:51;;;;;;;19.40;7.90;;;16.50;87.30;;;;;;5051996;28;20395;-73
2022/11/06 07:01:17;;;;;;;18.70;7.80;;;16.60;87.40;;;;;;5051802;28;20509;-73
2022/11/06 07:03:43;;;;;;;17.70;7.60;;;16.50;87.30;;;;;;5052057;28;20052;-73
2022/11/06 07:06:08;;;;;;;20.05;7.97;;;16.50;87.30;;;;;;5033976;28;20108;-73
2022/11/06 07:08:34;;;;;;;17.23;7.47;;;16.50;87.30;;;;;;5039690;28;20033;-73
2022/11/06 07:11:05;;;;;;;20.70;7.70;;;16.50;87.30;;;;;;5032794;28;20472;-73
2022/11/06 07:13:30;;;;;;;18.05;7.45;;;16.50;87.30;;;;;;5034424;28;20017;-73
2022/11/06 07:15:56;;;;;;;17.05;7.20;;;16.50;87.30;;;;;;5041193;28;20025;-73
2022/11/06 07:18:21;;;;;;;16.75;7.30;;;16.50;87.30;;;;;;5054615;28;20485;-73
2022/11/06 07:20:47;;;;;;;18.83;7.57;;;16.50;87.30;;;;;;5054075;28;20545;-73
2022/11/06 07:23:13;;;;;;;16.48;7.20;;;16.50;87.30;;;;;;5055846;28;20025;-73
2022/11/06 07:25:38;;;;;;;19.40;8.07;;;16.50;87.30;;;;;;5054052;28;20040;-73
2022/11/06 07:28:05;;;;;;;18.13;7.00;;;16.50;87.30;;;;;;5055686;28;20025;-73
2022/11/06 07:30:31;;;;;;;19.33;7.22;;;16.50;87.30;;;;;;5054252;28;20427;-73
2022/11/06 07:33:02;;;;;;;16.23;6.95;;;16.50;87.20;;;;;;5054213;28;20017;-73
2022/11/06 07:35:28;;;;;;;19.30;7.18;;;16.50;87.30;;;;;;5037841;28;20044;-73
2022/11/06 07:37:54;;;;;;;17.60;7.60;;;16.50;87.20;;;;;;5037711;28;20491;-73
2022/11/06 07:40:19;;;;;;;14.57;6.60;;;16.50;87.20;;;;;;5037318;28;20033;-73
2022/11/06 07:42:45;;;;;;;16.17;6.95;;;16.50;87.20;;;;;;5037337;28;20081;-73
2022/11/06 07:45:11;;;;;;;21.00;6.80;;;16.50;87.20;;;;;;5054131;28;20033;-73
2022/11/06 07:47:36;;;;;;;18.10;7.30;;;16.50;87.20;;;;;;5055037;28;20052;-73
2022/11/06 07:50:02;;;;;;;16.15;7.05;;;16.50;87.20;;;;;;5037223;28;20032;-73
2022/11/06 07:52:28;;;;;;;18.23;7.22;;;16.50;87.20;;;;;;5053911;28;20017;-73
2022/11/06 07:54:53;;;;;;;18.20;7.38;;;16.50;87.20;;;;;;5054980;28;20040;-73
2022/11/06 07:57:19;;;;;;;14.55;6.40;;;16.50;87.20;;;;;;5053837;28;20052;-73
2022/11/06 07:59:45;;;;;;;16.40;6.70;;;16.50;87.20;;;;;;5054895;28;20029;-73
2022/11/06 08:02:14;;;;;;;15.18;6.78;;;16.50;87.20;;;;;;5055025;28;20155;-73
2022/11/06 08:04:40;;;;;;;16.20;6.90;;;16.50;87.20;;;;;;5037369;28;20115;-73
2022/11/06 08:07:05;;;;;;;18.75;6.97;;;16.50;87.20;;;;;;5054954;28;20139;-73
2022/11/06 08:09:31;;;;;;;15.05;6.50;;;16.50;87.20;;;;;;5018367;28;20483;-73
2022/11/06 08:11:57;;;;;;;14.15;6.68;;;16.50;87.20;;;;;;5033704;28;20144;-73
2022/11/06 08:14:22;;;;;;;16.52;6.65;;;16.50;87.20;;;;;;5034710;28;20086;-73
2022/11/06 08:16:48;;;;;;;13.77;6.38;;;16.50;87.20;;;;;;5046897;28;20372;-73
2022/11/06 08:19:14;;;;;;;17.95;6.53;;;16.50;87.20;;;;;;5054584;28;20025;-73
2022/11/06 08:21:39;;;;;;;16.08;6.15;;;16.50;87.20;;;;;;5053133;28;20025;-73
2022/11/06 08:24:05;;;;;;;13.32;5.55;;;16.50;87.20;;;;;;5035600;28;20037;-73
2022/11/06 08:26:31;;;;;;;14.30;6.25;;;16.50;87.20;;;;;;5054469;28;20021;-73
2022/11/06 08:28:57;;;;;;;15.77;6.47;;;16.50;87.20;;;;;;5053370;28;20353;-73
2022/11/06 08:31:22;;;;;;;16.45;6.07;;;16.50;87.20;;;;;;5053345;28;20021;-73
2022/11/06 08:33:48;;;;;;;15.48;5.90;;;16.50;87.20;;;;;;5054214;28;20021;-73
2022/11/06 08:36:14;;;;;;;16.20;6.18;;;16.50;87.20;;;;;;5036632;28;20477;-73
2022/11/06 08:38:39;;;;;;;16.45;5.90;;;16.50;87.20;;;;;;5036517;28;20103;-73
2022/11/06 08:41:11;;;;;;;13.63;6.03;;;16.50;87.20;;;;;;5053068;28;20021;-73
2022/11/06 08:43:37;;;;;;;15.60;5.63;;;16.50;87.10;;;;;;5054011;28;20029;-73
2022/11/06 08:46:07;;;;;;;15.23;6.03;;;16.50;87.10;;;;;;5036125;28;20082;-73
2022/11/06 08:48:32;;;;;;;13.73;6.47;;;16.50;87.10;;;;;;5036542;28;20091;-73
2022/11/06 08:50:58;;;;;;;14.50;6.13;;;16.50;87.10;;;;;;5054087;28;20522;-73
2022/11/06 08:53:24;;;;;;;14.13;6.07;;;16.50;87.10;;;;;;5054103;28;20498;-73
2022/11/06 08:55:49;;;;;;;14.40;5.90;;;16.50;87.10;;;;;;5052589;28;20052;-73
2022/11/06 08:58:15;;;;;;;13.93;5.70;;;16.50;87.10;;;;;;5053844;28;20487;-73
2022/11/06 09:00:41;;;;;;;13.02;5.45;;;16.50;87.10;;;;;;5052508;28;20376;-73
2022/11/06 09:03:09;;;;;;;16.23;5.65;;;16.50;87.10;;;;;;5052719;28;20500;-73
2022/11/06 09:05:37;;;;;;;13.77;5.95;;;16.50;87.10;;;;;;5052510;28;20104;-73
2022/11/06 09:08:03;;;;;;;10.23;4.93;;;16.50;87.10;;;;;;5029710;28;20404;-73
2022/11/06 09:10:29;;;;;;;13.80;5.75;;;16.50;87.10;;;;;;5032665;28;20033;-73
2022/11/06 09:12:57;;;;;;;14.38;5.75;;;16.50;87.10;;;;;;5032536;28;20029;-73
2022/11/06 09:15:23;;;;;;;11.85;5.55;;;16.50;87.10;;;;;;5035145;28;20036;-73
2022/11/06 09:17:49;;;;;;;12.85;5.63;;;16.50;87.10;;;;;;5053727;28;20407;-73
2022/11/06 09:20:16;;;;;;;15.05;5.85;;;16.50;87.10;;;;;;5052340;28;20033;-73
2022/11/06 09:22:41;;;;;;;13.95;5.18;;;16.50;87.10;;;;;;5052121;28;20551;-73
2022/11/06 09:25:08;;;;;;;11.30;5.43;;;16.50;87.10;;;;;;5052223;28;20021;-73
2022/11/06 09:27:41;;;;;;;12.88;4.80;;;16.50;87.10;;;;;;5035641;28;20021;-73
2022/11/06 09:30:08;;;;;;;13.90;5.05;;;16.50;87.10;;;;;;5035567;28;20505;-73
2022/11/06 09:32:33;;;;;;;13.85;4.97;;;16.50;87.10;;;;;;5053371;28;20024;-73
2022/11/06 09:34:59;;;;;;;14.23;5.28;;;16.50;87.10;;;;;;5051590;28;20395;-73
2022/11/06 09:37:25;;;;;;;12.38;4.80;;;16.50;87.10;;;;;;5052062;28;20025;-73
2022/11/06 09:39:51;;;;;;;12.05;5.07;;;16.50;87.10;;;;;;5053147;28;20025;-73
2022/11/06 09:42:22;;;;;;;13.05;4.70;;;16.50;87.10;;;;;;5053157;28;20479;-73
2022/11/06 09:45:01;;;;;;;13.32;5.40;;;16.50;87.10;;;;;;5051582;28;20387;-73
2022/11/06 09:47:29;;;;;;;11.82;4.57;;;16.50;87.10;;;;;;5052034;28;20056;-73
2022/11/06 09:49:54;;;;;;;13.02;4.82;;;16.50;87.10;;;;;;5035287;28;20024;-73
2022/11/06 09:52:31;;;;;;;11.77;4.95;;;16.50;87.10;;;;;;5035305;28;20387;-73
2022/11/06 09:55:02;;;;;;;11.23;4.63;;;16.50;87.00;;;;;;5051744;28;20025;-73
2022/11/06 09:57:58;;;;;;;9.20;5.15;;;16.50;87.00;;;;;;5035436;28;20041;-73
2022/11/06 10:00:24;;;;;;;11.57;4.28;;;16.50;87.00;;;;;;5051312;28;20102;-73
2022/11/06 10:02:53;;;;;;;10.90;4.88;;;16.50;87.00;;;;;;5034910;28;20033;-73
2022/11/06 10:05:27;;;;;;;13.32;4.97;;;16.50;87.10;;;;;;5051634;28;20027;-73
2022/11/06 10:07:55;;;;;;;13.15;4.97;;;16.50;87.10;;;;;;5030416;28;20060;-73
2022/11/06 10:10:27;;;;;;;12.48;4.72;;;16.50;87.00;;;;;;5031492;28;20026;-73
2022/11/06 10:13:14;;;;;;;16.10;4.82;;;16.50;87.00;;;;;;5031612;28;20032;-73
2022/11/06 10:16:00;;;;;;;8.52;4.30;;;16.50;87.00;;;;;;5036759;28;20035;-73
2022/11/06 10:18:31;;;;;;;11.82;4.28;;;16.50;87.00;;;;;;5051547;28;20099;-73
2022/11/06 10:21:24;;;;;;;13.07;4.70;;;16.50;87.00;;;;;;5051268;28;20104;-73
2022/11/06 10:23:56;;;;;;;11.98;3.80;;;16.50;87.00;;;;;;5051978;28;20551;-73
2022/11/06 10:26:36;;;;;;;8.57;3.95;;;16.50;87.00;;;;;;5035473;28;20021;-73
2022/11/06 10:29:15;;;;;;;11.35;4.20;;;16.50;87.00;;;;;;5035888;28;20155;-73
2022/11/06 10:31:55;;;;;;;10.63;4.05;;;16.50;87.00;;;;;;5034948;28;20025;-73
2022/11/06 10:34:23;;;;;;;12.68;4.40;;;16.50;87.00;;;;;;5052312;28;20033;-73
2022/11/06 10:36:54;;;;;;;12.45;4.68;;;16.40;86.90;;;;;;5034344;28;20025;-73
2022/11/06 10:39:22;;;;;;;10.93;4.00;;;16.50;87.00;;;;;;5051140;28;20031;-73
2022/11/06 10:41:51;;;;;;;12.50;4.25;;;16.50;87.00;;;;;;5034552;28;20602;-73
2022/11/06 10:44:22;;;;;;;10.13;3.90;;;16.50;87.00;;;;;;5034431;28;20032;-73
2022/11/06 10:47:09;;;;;;;8.30;3.50;;;16.50;87.00;;;;;;5036928;28;20017;-73
2022/11/06 10:49:37;;;;;;;12.98;4.10;;;16.50;86.90;;;;;;5039358;28;20499;-73
2022/11/06 10:52:21;;;;;;;10.20;4.30;;;16.50;87.00;;;;;;5055182;28;20024;-73
2022/11/06 10:54:53;;;;;;;13.23;4.32;;;16.50;87.00;;;;;;5056316;28;20028;-73
2022/11/06 10:57:36;;;;;;;12.82;4.28;;;16.50;87.00;;;;;;5054870;28;20052;-73
2022/11/06 11:00:03;;;;;;;12.07;3.70;;;16.50;87.00;;;;;;5055228;28;20029;-73
2022/11/06 11:02:31;;;;;;;9.52;3.85;;;16.50;87.00;;;;;;5038377;28;20029;-73
2022/11/06 11:04:56;;;;;;;11.00;4.22;;;16.50;86.90;;;;;;5038382;28;20032;-73
2022/11/06 11:07:22;;;;;;;10.13;3.60;;;16.50;86.90;;;;;;5053959;28;20025;-73
2022/11/06 11:09:50;;;;;;;8.82;3.53;;;16.50;87.00;;;;;;5034922;28;20032;-73
2022/11/06 11:12:34;;;;;;;12.68;3.70;;;16.50;86.90;;;;;;5034692;28;20085;-73
2022/11/06 11:15:27;;;;;;;11.77;4.18;;;16.50;86.80;;;;;;5034941;28;20060;-73
2022/11/06 11:18:11;;;;;;;9.18;3.65;;;16.50;86.80;;;;;;5034490;28;20037;-73
2022/11/06 11:20:41;;;;;;;8.85;3.47;;;16.50;86.80;;;;;;5036002;28;20033;-73
2022/11/06 11:23:13;;;;;;;10.23;4.05;;;16.50;86.90;;;;;;5035169;28;20087;-73
2022/11/06 11:25:39;;;;;;;8.88;3.25;;;16.40;86.70;;;;;;5034569;28;20025;-73
2022/11/06 11:28:04;;;;;;;9.45;3.53;;;16.50;86.90;;;;;;5034562;28;20022;-73
2022/11/06 11:30:30;;;;;;;8.60;3.50;;;16.50;86.80;;;;;;5034608;28;20030;-73
2022/11/06 11:32:56;;;;;;;9.60;3.67;;;16.50;86.90;;;;;;5034528;28;20036;-73
2022/11/06 11:35:27;;;;;;;8.30;3.35;;;16.50;86.80;;;;;;5018050;28;20163;-73
2022/11/06 11:38:22;;;;;;;10.13;3.85;;;16.50;86.90;;;;;;5034648;28;20018;-73
2022/11/06 11:40:48;;;;;;;9.77;3.35;;;16.50;86.80;;;;;;5034210;28;20036;-73
2022/11/06 11:43:27;;;;;;;9.18;3.30;;;16.50;86.80;;;;;;5034616;28;20026;-73
2022/11/06 11:46:08;;;;;;;11.13;3.35;;;16.50;86.80;;;;;;5034433;28;20471;-73
2022/11/06 11:49:02;;;;;;;6.85;3.40;;;16.50;86.80;;;;;;5035509;28;20092;-73
2022/11/06 11:51:41;;;;;;;9.82;3.17;;;16.50;86.80;;;;;;5034150;28;20033;-73
2022/11/06 11:54:18;;;;;;;8.30;3.50;;;16.50;86.90;;;;;;5034457;28;20503;-73
2022/11/06 11:56:58;;;;;;;8.85;3.45;;;16.50;86.80;;;;;;5033665;28;20411;-73
2022/11/06 11:59:42;;;;;;;8.85;3.50;;;16.50;86.80;;;;;;5035547;28;20017;-73
2022/11/06 12:02:19;;;;;;;9.43;3.60;;;16.50;86.80;;;;;;5034180;28;20021;-73
2022/11/06 12:04:45;;;;;;;8.27;3.35;;;16.50;86.80;;;;;;5033720;28;20053;-73
2022/11/06 12:07:35;;;;;;;7.53;3.13;;;16.50;86.80;;;;;;5034323;28;20507;-73
2022/11/06 12:10:18;;;;;;;8.38;3.22;;;16.50;86.80;;;;;;5034452;28;20038;-73
2022/11/06 12:12:48;;;;;;;6.72;3.13;;;16.50;86.80;;;;;;5019707;28;20047;-73
2022/11/06 12:15:22;;;;;;;4.05;2.45;;;16.50;86.90;;;;;;5018050;28;20483;-73
2022/11/06 12:17:53;;;;;;;7.45;2.80;;;16.50;86.80;;;;;;5037745;28;20029;-73
2022/11/06 12:20:23;;;;;;;8.20;2.92;;;16.50;86.80;;;;;;5054674;28;20501;-73
2022/11/06 12:22:48;;;;;;;8.48;3.28;;;16.50;86.80;;;;;;5037293;28;20407;-73
2022/11/06 12:25:24;;;;;;;6.18;2.55;;;16.50;86.80;;;;;;5036646;28;20033;-73
2022/11/06 12:27:56;;;;;;;5.28;2.58;;;16.50;86.90;;;;;;5021512;28;20104;-73
2022/11/06 12:30:22;;;;;;;7.20;2.88;;;16.50;86.80;;;;;;5037185;28;20010;-73
2022/11/06 12:33:09;;;;;;;7.50;2.95;;;16.50;86.80;;;;;;5036691;28;20482;-73
2022/11/06 12:35:50;;;;;;;10.30;2.92;;;16.50;86.90;;;;;;5054321;28;20037;-73
2022/11/06 12:38:26;;;;;;;8.25;3.22;;;16.50;86.80;;;;;;5036895;28;20032;-73
2022/11/06 12:41:16;;;;;;;7.07;2.65;;;16.50;86.80;;;;;;5037012;28;20487;-73
2022/11/06 12:43:46;;;;;;;5.60;2.40;;;16.50;86.80;;;;;;5052796;28;20041;-73
2022/11/06 12:46:33;;;;;;;6.30;2.67;;;16.50;86.80;;;;;;5052929;28;20394;-73
2022/11/06 12:49:24;;;;;;;7.28;2.72;;;16.50;86.80;;;;;;5053093;28;20058;-73
2022/11/06 12:51:58;;;;;;;7.95;3.17;;;16.50;86.80;;;;;;5054223;28;20066;-73
2022/11/06 12:54:36;;;;;;;5.88;2.28;;;16.50;86.80;;;;;;5054082;28;20029;-73
2022/11/06 12:57:23;;;;;;;7.30;2.40;;;16.50;86.80;;;;;;5053908;28;20495;-73
2022/11/06 13:00:07;;;;;;;5.88;2.20;;;16.50;86.90;;;;;;5053946;28;20025;-73
2022/11/06 13:02:55;;;;;;;6.82;2.80;;;16.50;86.80;;;;;;5054448;28;20036;-73